Time;durP1;ratioP1;P1;durP2;ratioP2;P2;SDS_P1;SDS_P2;PMS_P1;PMS_P2;Temp;Humidity;BMP_temperature;BMP_pressure;BME280_temperature;BME280_humidity;BME280_pressure;Samples;Min_cycle;Max_cycle;Signal;HPM_P1;HPM_P2
2021/07/29 00:00:55;;;;;;;;;;;;;;;19.42;64.78;100633.03;2214274;39;113934;-53
2021/07/29 00:02:26;;;;;;;;;;;;;;;19.43;64.50;100628.25;2209342;39;113553;-54
2021/07/29 00:03:58;;;;;;;;;;;;;;;19.45;64.81;100631.59;2210965;39;113931;-53
2021/07/29 00:05:36;;;;;;;;;;;;;;;19.46;64.29;100636.91;2209753;39;113694;-54
2021/07/29 00:07:08;;;;;;;;;;;;;;;19.46;64.64;100638.88;2204070;39;113950;-53
2021/07/29 00:08:40;;;;;;;;;;;;;;;19.47;64.71;100635.78;2209122;39;114256;-53
2021/07/29 00:10:11;;;;;;;;;;;;;;;19.48;64.46;100639.41;2206657;39;114168;-57
2021/07/29 00:11:43;;;;;;;;;;;;;;;19.49;64.63;100638.25;2211856;39;113875;-53
2021/07/29 00:13:15;;;;;;;;;;;;;;;19.51;64.39;100642.41;2210501;39;115682;-54
2021/07/29 00:14:50;;;;;;;;;;;;;;;19.52;64.29;100649.69;2210513;39;114835;-53
2021/07/29 00:16:23;;;;;;;;;;;;;;;19.53;64.19;100654.13;2210723;39;114655;-53
2021/07/29 00:19:27;;;;;;;;;;;;;;;19.55;64.25;100645.41;2210552;39;115132;-55
2021/07/29 00:20:58;;;;;;;;;;;;;;;19.56;64.17;100644.28;2211115;39;115095;-54
2021/07/29 00:22:31;;;;;;;;;;;;;;;19.58;64.36;100641.19;2211404;39;114835;-54
2021/07/29 00:24:03;;;;;;;;;;;;;;;19.58;64.22;100644.00;2210245;39;114042;-53
2021/07/29 00:25:34;;;;;;;;;;;;;;;19.59;64.22;100635.25;2211221;39;115111;-53
2021/07/29 00:27:06;;;;;;;;;;;;;;;19.60;64.63;100642.53;2206471;39;115125;-53
2021/07/29 00:28:37;;;;;;;;;;;;;;;19.61;64.33;100638.59;2210561;39;114044;-53
2021/07/29 00:30:10;;;;;;;;;;;;;;;19.61;64.66;100637.75;2208113;39;115084;-53
2021/07/29 00:31:42;;;;;;;;;;;;;;;19.63;64.70;100644.69;2208098;39;115002;-53
2021/07/29 00:33:14;;;;;;;;;;;;;;;19.65;64.64;100650.84;2213277;39;115089;-53
2021/07/29 00:34:46;;;;;;;;;;;;;;;19.66;64.54;100643.25;2211264;39;116035;-53
2021/07/29 00:36:19;;;;;;;;;;;;;;;19.66;64.30;100644.09;2209321;39;115537;-53
2021/07/29 00:37:53;;;;;;;;;;;;;;;19.67;64.60;100634.53;2207917;39;115768;-55
2021/07/29 00:39:25;;;;;;;;;;;;;;;19.68;64.47;100641.81;2204418;39;116085;-53
2021/07/29 00:40:56;;;;;;;;;;;;;;;19.68;64.23;100644.59;2208099;39;115679;-53
2021/07/29 00:42:28;;;;;;;;;;;;;;;19.70;64.31;100645.13;2210587;39;114699;-53
2021/07/29 00:44:00;;;;;;;;;;;;;;;19.72;64.41;100644.81;2210206;39;115565;-55
2021/07/29 00:45:32;;;;;;;;;;;;;;;19.72;64.16;100642.84;2210963;39;116709;-54
2021/07/29 00:47:05;;;;;;;;;;;;;;;19.73;64.52;100638.06;2208002;39;114710;-53
2021/07/29 00:48:37;;;;;;;;;;;;;;;19.75;64.28;100635.78;2207296;39;115863;-53
2021/07/29 00:50:10;;;;;;;;;;;;;;;19.75;64.50;100638.59;2209929;39;115703;-53
2021/07/29 00:51:42;;;;;;;;;;;;;;;19.77;64.09;100639.09;2214116;39;115042;-53
2021/07/29 00:53:13;;;;;;;;;;;;;;;19.76;64.19;100641.06;2204289;39;116154;-53
2021/07/29 00:54:45;;;;;;;;;;;;;;;19.78;64.74;100635.16;2212801;39;116157;-54
2021/07/29 00:56:17;;;;;;;;;;;;;;;19.78;64.58;100638.81;2211433;39;114014;-54
2021/07/29 00:57:49;;;;;;;;;;;;;;;19.79;64.57;100639.63;2210302;39;114017;-54
2021/07/29 00:59:21;;;;;;;;;;;;;;;19.80;64.44;100639.34;2209551;39;114268;-54
2021/07/29 01:00:52;;;;;;;;;;;;;;;19.83;64.34;100637.88;2210607;39;113990;-53
2021/07/29 01:02:24;;;;;;;;;;;;;;;19.83;64.10;100638.69;2209769;39;113837;-54
2021/07/29 01:03:56;;;;;;;;;;;;;;;19.82;64.08;100651.06;2210915;39;113739;-53
2021/07/29 01:05:27;;;;;;;;;;;;;;;19.85;64.35;100650.41;2209155;39;113684;-53
2021/07/29 01:06:59;;;;;;;;;;;;;;;19.84;64.00;100643.19;2207560;39;113976;-53
2021/07/29 01:08:30;;;;;;;;;;;;;;;19.86;64.18;100643.69;2210387;39;113735;-53
2021/07/29 01:10:02;;;;;;;;;;;;;;;19.87;64.21;100641.72;2207130;39;114149;-54
2021/07/29 01:11:35;;;;;;;;;;;;;;;19.87;64.18;100645.34;2208043;39;113662;-53
2021/07/29 01:13:06;;;;;;;;;;;;;;;19.89;64.31;100648.69;2214932;39;113739;-53
2021/07/29 01:14:38;;;;;;;;;;;;;;;19.89;64.26;100653.47;2213032;39;113803;-53
2021/07/29 01:16:10;;;;;;;;;;;;;;;19.90;63.98;100652.28;2211195;39;113644;-53
2021/07/29 01:17:41;;;;;;;;;;;;;;;19.91;63.92;100649.19;2213526;39;113562;-53
2021/07/29 01:19:13;;;;;;;;;;;;;;;19.91;64.12;100639.94;2211138;39;114918;-53
2021/07/29 01:20:55;;;;;;;;;;;;;;;19.92;63.86;100636.84;2210603;39;115087;-53
2021/07/29 01:22:29;;;;;;;;;;;;;;;19.92;64.12;100648.06;2210847;39;114974;-53
2021/07/29 01:24:01;;;;;;;;;;;;;;;19.94;63.78;100645.75;2210607;39;115231;-57
2021/07/29 01:25:32;;;;;;;;;;;;;;;19.93;63.70;100644.09;2199993;39;115386;-54
2021/07/29 01:27:04;;;;;;;;;;;;;;;19.94;64.05;100645.75;2207896;39;114977;-53
2021/07/29 01:28:36;;;;;;;;;;;;;;;19.95;63.79;100638.16;2210607;39;114860;-54
2021/07/29 01:30:08;;;;;;;;;;;;;;;19.97;63.90;100645.16;2210172;39;117230;-55
2021/07/29 01:31:39;;;;;;;;;;;;;;;19.97;63.97;100642.34;2209732;39;113850;-55
2021/07/29 01:33:11;;;;;;;;;;;;;;;19.99;64.03;100648.44;2208477;39;114669;-53
2021/07/29 01:34:43;;;;;;;;;;;;;;;19.98;63.63;100643.19;2210123;39;115897;-53
2021/07/29 01:36:14;;;;;;;;;;;;;;;20.00;63.90;100638.06;2210655;39;114779;-53
2021/07/29 01:37:46;;;;;;;;;;;;;;;20.01;64.03;100648.16;2210666;39;114859;-53
2021/07/29 01:39:17;;;;;;;;;;;;;;;20.01;64.32;100655.72;2213286;39;115171;-53
2021/07/29 01:40:49;;;;;;;;;;;;;;;20.00;63.82;100638.06;2210383;39;115914;-53
2021/07/29 01:42:21;;;;;;;;;;;;;;;20.03;63.93;100650.66;2211375;39;115583;-53
2021/07/29 01:43:52;;;;;;;;;;;;;;;20.04;64.26;100652.28;2206428;39;115552;-53
2021/07/29 01:45:24;;;;;;;;;;;;;;;20.04;63.92;100655.09;2210093;39;116195;-53
2021/07/29 01:46:56;;;;;;;;;;;;;;;20.06;64.09;100658.44;2211031;39;115939;-53
2021/07/29 01:48:28;;;;;;;;;;;;;;;20.05;64.24;100651.16;2215809;39;115871;-53
2021/07/29 01:50:00;;;;;;;;;;;;;;;20.06;64.08;100658.44;2209916;39;114599;-55
2021/07/29 01:51:31;;;;;;;;;;;;;;;20.07;63.67;100651.69;2210847;39;115731;-53
2021/07/29 01:53:03;;;;;;;;;;;;;;;20.08;63.93;100647.75;2211008;39;114758;-53
2021/07/29 01:54:34;;;;;;;;;;;;;;;20.09;64.18;100657.78;2210330;39;115656;-53
2021/07/29 01:56:07;;;;;;;;;;;;;;;20.10;63.67;100651.88;2210568;39;115568;-54
2021/07/29 01:57:38;;;;;;;;;;;;;;;20.11;63.77;100658.31;2210064;39;114880;-54
2021/07/29 01:59:10;;;;;;;;;;;;;;;20.10;63.81;100651.88;2209863;39;114993;-53
2021/07/29 02:00:42;;;;;;;;;;;;;;;20.11;63.90;100659.16;2213286;39;115764;-53
2021/07/29 02:02:14;;;;;;;;;;;;;;;20.12;63.55;100648.78;2209038;39;113940;-53
2021/07/29 02:03:47;;;;;;;;;;;;;;;20.13;63.66;100650.41;2210377;39;113563;-54
2021/07/29 02:05:18;;;;;;;;;;;;;;;20.13;64.03;100654.06;2211081;39;114034;-53
2021/07/29 02:06:50;;;;;;;;;;;;;;;20.12;63.97;100652.41;2209878;39;114007;-53
2021/07/29 02:08:23;;;;;;;;;;;;;;;20.13;64.04;100651.25;2210559;39;113863;-53
2021/07/29 02:09:55;;;;;;;;;;;;;;;20.14;63.92;100652.09;2210598;39;113745;-53
2021/07/29 02:11:30;;;;;;;;;;;;;;;20.15;63.86;100656.56;2207967;39;113729;-53
2021/07/29 02:13:02;;;;;;;;;;;;;;;20.16;63.64;100655.41;2209168;39;113912;-54
2021/07/29 02:14:33;;;;;;;;;;;;;;;20.15;63.70;100650.94;2209585;39;113713;-53
2021/07/29 02:16:12;;;;;;;;;;;;;;;20.16;63.33;100652.63;2209284;39;113735;-54
2021/07/29 02:17:44;;;;;;;;;;;;;;;20.16;63.82;100653.44;2209992;39;113839;-54
2021/07/29 02:19:16;;;;;;;;;;;;;;;20.18;63.80;100658.72;2202802;39;114179;-54
2021/07/29 02:20:48;;;;;;;;;;;;;;;20.17;63.83;100659.88;2209732;39;114079;-53
2021/07/29 02:22:20;;;;;;;;;;;;;;;20.19;63.65;100660.38;2209398;39;113990;-53
2021/07/29 02:23:51;;;;;;;;;;;;;;;20.19;63.25;100655.63;2209312;39;114473;-53
2021/07/29 02:25:23;;;;;;;;;;;;;;;20.20;63.32;100662.06;2210457;39;114185;-53
2021/07/29 02:26:55;;;;;;;;;;;;;;;20.19;63.60;100661.22;2208603;39;114161;-53
2021/07/29 02:28:26;;;;;;;;;;;;;;;20.21;63.56;100667.38;2210590;39;115023;-53
2021/07/29 02:29:58;;;;;;;;;;;;;;;20.21;63.18;100664.56;2204829;39;114055;-54
2021/07/29 02:31:29;;;;;;;;;;;;;;;20.22;63.47;100665.38;2206032;39;114959;-53
2021/07/29 02:33:01;;;;;;;;;;;;;;;20.23;63.54;100667.03;2212845;39;114895;-54
2021/07/29 02:34:33;;;;;;;;;;;;;;;20.21;63.67;100670.19;2211634;39;115352;-53
2021/07/29 02:36:04;;;;;;;;;;;;;;;20.22;63.54;100659.75;2209290;39;114038;-53
2021/07/29 02:37:36;;;;;;;;;;;;;;;20.24;63.26;100657.47;2210070;39;114902;-53
2021/07/29 02:39:08;;;;;;;;;;;;;;;20.23;63.57;100659.44;2210363;39;115416;-53
2021/07/29 02:40:39;;;;;;;;;;;;;;;20.23;63.54;100665.06;2211147;39;115282;-53
2021/07/29 02:42:11;;;;;;;;;;;;;;;20.23;63.52;100650.19;2210348;39;114930;-53
2021/07/29 02:43:43;;;;;;;;;;;;;;;20.23;63.31;100647.41;2209767;39;115263;-54
2021/07/29 02:45:15;;;;;;;;;;;;;;;20.25;63.59;100659.16;2208854;39;115664;-53
2021/07/29 02:46:47;;;;;;;;;;;;;;;20.24;63.44;100652.69;2210468;39;115757;-54
2021/07/29 02:48:18;;;;;;;;;;;;;;;20.26;63.56;100652.41;2210511;39;116065;-53
2021/07/29 02:49:50;;;;;;;;;;;;;;;20.25;63.26;100648.75;2210229;39;116575;-53
2021/07/29 02:51:21;;;;;;;;;;;;;;;20.27;63.52;100651.22;2209773;39;116047;-54
2021/07/29 02:52:53;;;;;;;;;;;;;;;20.27;63.61;100654.03;2206135;39;115842;-55
2021/07/29 02:54:25;;;;;;;;;;;;;;;20.28;63.64;100658.50;2205498;39;115512;-55
2021/07/29 02:55:57;;;;;;;;;;;;;;;20.28;63.40;100658.50;2209758;39;114755;-55
2021/07/29 02:57:29;;;;;;;;;;;;;;;20.28;63.61;100656.53;2209839;39;115619;-54
2021/07/29 02:59:01;;;;;;;;;;;;;;;20.28;63.51;100662.16;2210378;39;115891;-54
2021/07/29 03:00:33;;;;;;;;;;;;;;;20.28;63.53;100653.72;2210307;39;115817;-53
2021/07/29 03:02:05;;;;;;;;;;;;;;;20.30;63.25;100654.28;2209989;39;115511;-53
2021/07/29 03:03:37;;;;;;;;;;;;;;;20.30;63.09;100659.91;2210244;39;115537;-53
2021/07/29 03:05:09;;;;;;;;;;;;;;;20.30;63.07;100656.28;2209673;39;115684;-54
2021/07/29 03:06:40;;;;;;;;;;;;;;;20.29;63.45;100654.56;2218185;39;115994;-54
2021/07/29 03:08:12;;;;;;;;;;;;;;;20.29;63.28;100657.38;2210082;39;113626;-53
2021/07/29 03:09:43;;;;;;;;;;;;;;;20.31;63.21;100660.72;2211409;39;113682;-53
2021/07/29 03:11:16;;;;;;;;;;;;;;;20.31;63.15;100657.91;2205231;39;113782;-54
2021/07/29 03:12:47;;;;;;;;;;;;;;;20.32;63.40;100660.41;2210442;39;113713;-54
2021/07/29 03:14:19;;;;;;;;;;;;;;;20.31;63.05;100658.75;2210363;39;114143;-54
2021/07/29 03:15:51;;;;;;;;;;;;;;;20.32;63.24;100653.97;2207050;39;113817;-53
2021/07/29 03:17:22;;;;;;;;;;;;;;;20.32;62.98;100665.19;2208502;39;113805;-53
2021/07/29 03:18:54;;;;;;;;;;;;;;;20.32;62.89;100665.19;2213849;39;113917;-53
2021/07/29 03:20:25;;;;;;;;;;;;;;;20.34;62.70;100668.53;2208376;39;113656;-53
2021/07/29 03:21:57;;;;;;;;;;;;;;;20.32;62.93;100662.38;2210278;39;114126;-53
2021/07/29 03:23:29;;;;;;;;;;;;;;;20.32;62.93;100665.19;2206277;39;113763;-54
2021/07/29 03:25:00;;;;;;;;;;;;;;;20.34;63.02;100663.75;2213245;39;114412;-54
2021/07/29 03:26:32;;;;;;;;;;;;;;;20.34;63.24;100669.34;2209456;39;113917;-53
2021/07/29 03:28:04;;;;;;;;;;;;;;;20.33;62.95;100667.69;2211058;39;113659;-54
2021/07/29 03:29:36;;;;;;;;;;;;;;;20.33;62.86;100673.31;2206542;39;115129;-53
2021/07/29 03:31:07;;;;;;;;;;;;;;;20.34;62.66;100665.72;2209955;39;115830;-53
2021/07/29 03:32:39;;;;;;;;;;;;;;;20.33;62.74;100672.47;2209423;39;115052;-53
2021/07/29 03:34:10;;;;;;;;;;;;;;;20.32;62.62;100665.19;2209554;39;115347;-54
2021/07/29 03:35:42;;;;;;;;;;;;;;;20.33;62.67;100673.31;2208240;39;114957;-53
2021/07/29 03:37:14;;;;;;;;;;;;;;;20.33;63.00;100675.28;2211350;39;114875;-53
2021/07/29 03:38:45;;;;;;;;;;;;;;;20.34;62.64;100669.34;2211600;39;114921;-53
2021/07/29 03:40:17;;;;;;;;;;;;;;;20.34;62.98;100674.97;2211134;39;114981;-53
2021/07/29 03:41:48;;;;;;;;;;;;;;;20.33;63.09;100673.31;2211529;39;115037;-54
2021/07/29 03:43:20;;;;;;;;;;;;;;;20.33;62.76;100669.66;2211217;39;115003;-53
2021/07/29 03:44:52;;;;;;;;;;;;;;;20.42;63.18;100673.38;2209654;39;115161;-53
2021/07/29 03:46:23;;;;;;;;;;;;;;;20.40;62.78;100668.06;2210850;39;115382;-53
2021/07/29 03:47:55;;;;;;;;;;;;;;;20.37;62.85;100670.69;2207580;39;114003;-53
2021/07/29 03:49:27;;;;;;;;;;;;;;;20.38;62.68;100675.16;2212971;39;115217;-53
2021/07/29 03:50:58;;;;;;;;;;;;;;;20.37;62.75;100673.50;2210872;39;114752;-53
2021/07/29 03:52:30;;;;;;;;;;;;;;;20.35;62.41;100678.59;2209964;39;115961;-53
2021/07/29 03:54:03;;;;;;;;;;;;;;;20.36;62.39;100677.44;2206143;39;115875;-55
2021/07/29 03:55:34;;;;;;;;;;;;;;;20.36;62.37;100677.44;2208208;39;115020;-55
2021/07/29 03:57:08;;;;;;;;;;;;;;;20.37;62.49;100679.94;2206435;39;116336;-56
2021/07/29 03:58:39;;;;;;;;;;;;;;;20.36;62.41;100681.06;2209466;39;115755;-53
2021/07/29 04:00:11;;;;;;;;;;;;;;;20.36;62.67;100683.88;2212969;39;114618;-54
2021/07/29 04:01:43;;;;;;;;;;;;;;;20.37;62.86;100682.75;2210835;39;117350;-54
2021/07/29 04:03:15;;;;;;;;;;;;;;;20.37;62.43;100684.72;2210829;39;115486;-53
2021/07/29 04:04:47;;;;;;;;;;;;;;;20.37;62.44;100687.53;2210267;39;114618;-53
2021/07/29 04:06:18;;;;;;;;;;;;;;;20.39;62.54;100685.25;2210981;39;115849;-53
2021/07/29 04:07:50;;;;;;;;;;;;;;;20.37;62.34;100677.13;2210483;39;115480;-54
2021/07/29 04:09:21;;;;;;;;;;;;;;;20.36;62.71;100681.06;2210713;39;115575;-53
2021/07/29 04:10:57;;;;;;;;;;;;;;;20.38;62.50;100686.38;2213695;39;115956;-53
2021/07/29 04:12:28;;;;;;;;;;;;;;;20.38;62.86;100686.38;2210898;39;113884;-55
2021/07/29 04:14:00;;;;;;;;;;;;;;;20.38;62.52;100683.56;2210587;39;113778;-56
2021/07/29 04:15:32;;;;;;;;;;;;;;;20.37;62.62;100674.31;2210613;39;114018;-56
2021/07/29 04:17:04;;;;;;;;;;;;;;;20.39;62.42;100686.09;2211283;39;113589;-55
2021/07/29 04:18:36;;;;;;;;;;;;;;;20.39;62.40;100682.44;2216056;39;113878;-55
2021/07/29 04:20:08;;;;;;;;;;;;;;;20.40;62.69;100684.06;2210098;39;114057;-55
2021/07/29 04:21:40;;;;;;;;;;;;;;;20.40;62.36;100696.13;2210323;39;113599;-55
2021/07/29 04:23:11;;;;;;;;;;;;;;;20.39;62.54;100696.47;2210943;39;113808;-55
2021/07/29 04:24:43;;;;;;;;;;;;;;;20.39;62.38;100693.66;2211620;39;113860;-57
2021/07/29 04:26:15;;;;;;;;;;;;;;;20.39;62.62;100699.28;2210276;39;113723;-55
2021/07/29 04:27:46;;;;;;;;;;;;;;;20.40;62.53;100700.91;2210997;39;113802;-55
2021/07/29 04:29:18;;;;;;;;;;;;;;;20.37;62.58;100693.13;2210749;39;113683;-55
2021/07/29 04:30:49;;;;;;;;;;;;;;;20.39;62.49;100699.28;2209562;39;114037;-52
2021/07/29 04:32:21;;;;;;;;;;;;;;;20.41;62.62;100696.97;2208027;39;113996;-53
2021/07/29 04:33:55;;;;;;;;;;;;;;;20.40;62.38;100700.91;2214314;39;113983;-53
2021/07/29 04:35:27;;;;;;;;;;;;;;;20.39;62.38;100694.50;2207802;39;115542;-53
2021/07/29 04:36:59;;;;;;;;;;;;;;;20.40;62.64;100698.94;2210826;39;114931;-53
2021/07/29 04:38:32;;;;;;;;;;;;;;;20.40;62.57;100700.91;2211378;39;115000;-53
2021/07/29 04:40:04;;;;;;;;;;;;;;;20.41;62.67;100689.38;2206037;39;115149;-55
2021/07/29 04:41:40;;;;;;;;;;;;;;;20.41;62.37;100702.59;2210582;39;114978;-56
2021/07/29 04:43:11;;;;;;;;;;;;;;;20.41;62.74;100700.63;2203974;39;114944;-55
2021/07/29 04:44:43;;;;;;;;;;;;;;;20.41;62.67;100697.81;2208293;39;115028;-55
2021/07/29 04:46:14;;;;;;;;;;;;;;;20.41;62.39;100699.78;2210263;39;115020;-55
2021/07/29 04:47:46;;;;;;;;;;;;;;;20.42;62.47;100707.06;2205658;39;114853;-55
2021/07/29 04:49:20;;;;;;;;;;;;;;;20.42;62.32;100699.47;2207080;39;115205;-56
2021/07/29 04:50:52;;;;;;;;;;;;;;;20.42;62.70;100699.47;2209687;39;114946;-56
2021/07/29 04:52:23;;;;;;;;;;;;;;;20.43;62.54;100703.13;2210829;39;114946;-55
2021/07/29 04:53:58;;;;;;;;;;;;;;;20.43;62.20;100708.72;2204306;39;115237;-55
2021/07/29 04:55:29;;;;;;;;;;;;;;;20.43;62.22;100711.53;2205350;39;115070;-55
2021/07/29 04:57:01;;;;;;;;;;;;;;;20.44;62.29;100703.94;2210351;39;115057;-55
2021/07/29 04:58:33;;;;;;;;;;;;;;;20.45;62.59;100708.41;2206455;39;115521;-56
2021/07/29 05:00:05;;;;;;;;;;;;;;;20.44;62.25;100716.00;2210304;39;115527;-55
2021/07/29 05:01:37;;;;;;;;;;;;;;;20.45;62.04;100714.00;2211057;39;115999;-55
2021/07/29 05:03:09;;;;;;;;;;;;;;;20.44;62.53;100716.00;2209186;39;115477;-56
2021/07/29 05:04:41;;;;;;;;;;;;;;;20.44;62.15;100713.19;2209767;39;115714;-56
2021/07/29 05:06:12;;;;;;;;;;;;;;;20.44;62.13;100718.81;2210868;39;115941;-56
2021/07/29 05:07:44;;;;;;;;;;;;;;;20.44;62.49;100717.97;2209302;39;115530;-56
2021/07/29 05:09:15;;;;;;;;;;;;;;;20.45;62.16;100717.66;2204918;39;115811;-53
2021/07/29 05:10:47;;;;;;;;;;;;;;;20.45;62.08;100725.22;2210644;39;114853;-55
2021/07/29 05:12:18;;;;;;;;;;;;;;;20.44;62.35;100720.78;2211350;39;115213;-55
2021/07/29 05:13:52;;;;;;;;;;;;;;;20.44;62.49;100726.41;2211010;39;116255;-56
2021/07/29 05:15:23;;;;;;;;;;;;;;;20.46;62.60;100721.28;2211207;39;115531;-55
2021/07/29 05:16:59;;;;;;;;;;;;;;;20.44;62.50;100721.63;2212630;39;115228;-55
2021/07/29 05:18:30;;;;;;;;;;;;;;;20.45;62.17;100723.25;2214417;39;113656;-55
2021/07/29 05:20:02;;;;;;;;;;;;;;;20.45;62.36;100720.47;2209815;39;113911;-55
2021/07/29 05:21:34;;;;;;;;;;;;;;;20.46;62.04;100722.13;2210989;39;113738;-55
2021/07/29 05:23:05;;;;;;;;;;;;;;;20.46;62.42;100726.91;2211069;39;113893;-56
2021/07/29 05:24:37;;;;;;;;;;;;;;;20.46;62.12;100722.13;2204835;39;113657;-55
2021/07/29 05:26:18;;;;;;;;;;;;;;;20.45;62.17;100728.88;2210965;39;113714;-56
2021/07/29 05:27:50;;;;;;;;;;;;;;;20.46;61.97;100712.88;2210344;39;113829;-55
2021/07/29 05:29:22;;;;;;;;;;;;;;;20.47;62.33;100722.97;2211231;39;113780;-55
2021/07/29 05:30:53;;;;;;;;;;;;;;;20.46;62.34;100727.75;2208147;39;113629;-55
2021/07/29 05:32:25;;;;;;;;;;;;;;;20.46;62.05;100727.75;2211141;39;113727;-55
2021/07/29 05:33:57;;;;;;;;;;;;;;;20.47;61.86;100732.22;2209539;39;113928;-55
2021/07/29 05:35:29;;;;;;;;;;;;;;;20.46;62.24;100727.75;2210111;39;114224;-55
2021/07/29 05:37:00;;;;;;;;;;;;;;;20.47;62.25;100734.19;2212238;39;113682;-55
2021/07/29 05:38:33;;;;;;;;;;;;;;;20.47;62.62;100731.38;2210843;39;113933;-56
2021/07/29 05:40:06;;;;;;;;;;;;;;;20.47;62.43;100735.03;2208902;39;114923;-55
2021/07/29 05:41:37;;;;;;;;;;;;;;;20.49;62.54;100740.31;2208533;39;114015;-56
2021/07/29 05:43:09;;;;;;;;;;;;;;;20.47;62.27;100740.63;2209025;39;114918;-55
2021/07/29 05:44:40;;;;;;;;;;;;;;;20.47;62.13;100732.22;2210748;39;114980;-55
2021/07/29 05:46:12;;;;;;;;;;;;;;;20.49;62.34;100745.94;2210536;39;114823;-56
2021/07/29 05:47:44;;;;;;;;;;;;;;;20.49;62.44;100749.56;2210716;39;114934;-55
2021/07/29 05:49:15;;;;;;;;;;;;;;;20.48;62.17;100742.31;2210893;39;114952;-55
2021/07/29 05:50:47;;;;;;;;;;;;;;;20.48;62.47;100744.28;2210162;39;115314;-55
2021/07/29 05:52:19;;;;;;;;;;;;;;;20.47;62.18;100746.25;2211378;39;115856;-55
2021/07/29 05:53:50;;;;;;;;;;;;;;;20.47;62.34;100745.41;2210662;39;114923;-55
2021/07/29 05:55:22;;;;;;;;;;;;;;;20.48;62.29;100747.09;2210542;39;115437;-56
2021/07/29 05:56:53;;;;;;;;;;;;;;;20.49;62.17;100743.13;2210446;39;114646;-55
2021/07/29 05:58:25;;;;;;;;;;;;;;;20.50;62.15;100740.00;2210910;39;115095;-55
2021/07/29 05:59:56;;;;;;;;;;;;;;;20.48;62.06;100750.72;2214689;39;115536;-55
2021/07/29 06:01:28;;;;;;;;;;;;;;;20.49;62.34;100748.75;2211044;39;115756;-55
2021/07/29 06:03:00;;;;;;;;;;;;;;;20.49;61.93;100749.56;2210237;39;116044;-55
2021/07/29 06:04:32;;;;;;;;;;;;;;;20.49;62.13;100743.13;2210205;39;115554;-55
2021/07/29 06:06:03;;;;;;;;;;;;;;;20.47;62.35;100745.41;2210718;39;115636;-55
2021/07/29 06:07:35;;;;;;;;;;;;;;;20.48;62.09;100744.28;2210824;39;115655;-55
2021/07/29 06:09:07;;;;;;;;;;;;;;;20.50;62.15;100747.59;2209474;39;114554;-55
2021/07/29 06:10:39;;;;;;;;;;;;;;;20.48;62.03;100747.91;2210646;39;115987;-55
2021/07/29 06:12:11;;;;;;;;;;;;;;;20.48;62.33;100756.34;2210105;39;115586;-55
2021/07/29 06:13:42;;;;;;;;;;;;;;;20.48;61.93;100761.94;2211025;39;115587;-55
2021/07/29 06:15:14;;;;;;;;;;;;;;;20.48;62.30;100761.94;2213726;39;114667;-55
2021/07/29 06:16:46;;;;;;;;;;;;;;;20.49;62.38;100757.97;2210871;39;114893;-55
2021/07/29 06:18:17;;;;;;;;;;;;;;;20.49;62.49;100768.41;2210606;39;116168;-55
2021/07/29 06:19:49;;;;;;;;;;;;;;;20.49;62.34;100768.41;2210104;39;114773;-56
2021/07/29 06:21:21;;;;;;;;;;;;;;;20.48;62.61;100770.38;2210573;39;115510;-55
2021/07/29 06:22:52;;;;;;;;;;;;;;;20.50;62.04;100767.22;2212427;39;115652;-55
2021/07/29 06:24:25;;;;;;;;;;;;;;;20.49;62.37;100769.19;2209618;39;113979;-55
2021/07/29 06:25:56;;;;;;;;;;;;;;;20.49;62.52;100765.59;2210497;39;113703;-55
2021/07/29 06:27:28;;;;;;;;;;;;;;;20.49;62.31;100766.38;2206687;39;113941;-55
2021/07/29 06:29:00;;;;;;;;;;;;;;;20.51;62.34;100766.91;2208155;39;114003;-56
2021/07/29 06:30:33;;;;;;;;;;;;;;;20.49;62.49;100772.00;2201606;39;113676;-55
2021/07/29 06:32:05;;;;;;;;;;;;;;;20.51;62.33;100774.50;2208540;39;113833;-55
2021/07/29 06:33:37;;;;;;;;;;;;;;;20.51;62.13;100771.69;2210437;39;113880;-55
2021/07/29 06:35:09;;;;;;;;;;;;;;;20.50;62.33;100770.03;2210398;39;115392;-55
2021/07/29 06:36:40;;;;;;;;;;;;;;;20.51;62.14;100768.91;2205081;39;113953;-55
2021/07/29 06:38:12;;;;;;;;;;;;;;;20.52;62.27;100778.97;2206105;39;113716;-55
2021/07/29 06:39:43;;;;;;;;;;;;;;;20.50;61.96;100770.88;2208718;39;114086;-56
2021/07/29 06:41:15;;;;;;;;;;;;;;;20.51;61.95;100772.53;2211916;39;113871;-55
2021/07/29 06:42:47;;;;;;;;;;;;;;;20.49;62.15;100763.59;2213405;39;113836;-55
2021/07/29 06:44:18;;;;;;;;;;;;;;;20.50;61.75;100770.88;2215723;39;113757;-55
2021/07/29 06:45:50;;;;;;;;;;;;;;;20.50;62.41;100772.84;2211445;39;114962;-55
2021/07/29 06:47:21;;;;;;;;;;;;;;;20.49;62.05;100774.81;2209645;39;114952;-56
2021/07/29 06:48:53;;;;;;;;;;;;;;;20.52;61.72;100776.19;2217384;39;115230;-57
2021/07/29 06:50:25;;;;;;;;;;;;;;;20.51;61.92;100771.69;2213019;39;114967;-55
2021/07/29 06:51:56;;;;;;;;;;;;;;;20.50;61.81;100782.09;2211287;39;114068;-55
2021/07/29 06:53:28;;;;;;;;;;;;;;;20.54;61.71;100773.88;2211399;39;114832;-55
2021/07/29 06:54:59;;;;;;;;;;;;;;;20.50;61.47;100782.09;2211529;39;114914;-55
2021/07/29 06:56:31;;;;;;;;;;;;;;;20.49;61.76;100783.22;2210719;39;114442;-55
2021/07/29 06:58:03;;;;;;;;;;;;;;;20.51;61.84;100780.13;2207836;39;115174;-55
2021/07/29 06:59:35;;;;;;;;;;;;;;;20.49;62.01;100793.66;2212870;39;115275;-55
2021/07/29 07:01:06;;;;;;;;;;;;;;;20.52;61.47;100793.84;2211807;39;114946;-55
2021/07/29 07:02:38;;;;;;;;;;;;;;;20.50;61.80;100790.50;2210784;39;115068;-55
2021/07/29 07:04:10;;;;;;;;;;;;;;;20.50;61.68;100787.72;2204668;39;114182;-55
2021/07/29 07:05:45;;;;;;;;;;;;;;;20.52;61.32;100795.81;2213706;39;115405;-56
2021/07/29 07:07:17;;;;;;;;;;;;;;;20.51;61.65;100803.41;2206322;39;115474;-55
2021/07/29 07:08:48;;;;;;;;;;;;;;;20.53;61.26;100794.69;2212308;39;114976;-55
2021/07/29 07:10:20;;;;;;;;;;;;;;;20.52;61.30;100790.22;2213137;39;115616;-55
2021/07/29 07:11:51;;;;;;;;;;;;;;;20.52;61.12;100788.25;2211679;39;115886;-56
2021/07/29 07:13:23;;;;;;;;;;;;;;;20.52;61.12;100790.22;2211674;39;115558;-56
2021/07/29 07:14:55;;;;;;;;;;;;;;;20.50;61.36;100796.13;2210153;39;116129;-55
2021/07/29 07:16:26;;;;;;;;;;;;;;;20.50;61.22;100787.72;2207675;39;116103;-55
2021/07/29 07:17:58;;;;;;;;;;;;;;;20.51;61.00;100792.19;2210197;39;115040;-56
2021/07/29 07:19:30;;;;;;;;;;;;;;;20.49;61.34;100797.25;2211014;39;114605;-55
2021/07/29 07:21:06;;;;;;;;;;;;;;;20.51;61.22;100803.41;2211661;39;115650;-55
2021/07/29 07:22:37;;;;;;;;;;;;;;;20.53;61.27;100797.50;2211561;39;116074;-56
2021/07/29 07:24:09;;;;;;;;;;;;;;;20.53;60.92;100791.88;2205577;39;117591;-55
2021/07/29 07:25:40;;;;;;;;;;;;;;;20.54;61.01;100790.72;2211190;39;115637;-56
2021/07/29 07:27:15;;;;;;;;;;;;;;;20.53;61.32;100794.69;2213032;39;114593;-55
2021/07/29 07:28:48;;;;;;;;;;;;;;;20.55;60.83;100798.84;2211288;39;114067;-55
2021/07/29 07:30:19;;;;;;;;;;;;;;;20.53;61.14;100803.09;2211153;39;113780;-55
2021/07/29 07:31:51;;;;;;;;;;;;;;;20.54;61.10;100788.75;2211489;39;113663;-55
2021/07/29 07:33:22;;;;;;;;;;;;;;;20.51;60.88;100808.19;2212073;39;114085;-55
2021/07/29 07:34:54;;;;;;;;;;;;;;;20.55;60.76;100806.41;2210938;39;113852;-55
2021/07/29 07:36:26;;;;;;;;;;;;;;;20.54;60.55;100802.78;2211732;39;113679;-56
2021/07/29 07:37:58;;;;;;;;;;;;;;;20.51;60.81;100806.22;2209610;39;113581;-55
2021/07/29 07:39:29;;;;;;;;;;;;;;;20.53;60.78;100798.34;2211119;39;113717;-55
2021/07/29 07:41:05;;;;;;;;;;;;;;;20.54;60.81;100807.56;2211889;39;113635;-56
2021/07/29 07:42:37;;;;;;;;;;;;;;;20.53;60.60;100800.31;2210804;39;114865;-55
2021/07/29 07:44:09;;;;;;;;;;;;;;;20.53;60.93;100809.56;2205018;39;113816;-55
2021/07/29 07:45:41;;;;;;;;;;;;;;;20.53;60.73;100815.16;2209112;39;113721;-55
2021/07/29 07:47:13;;;;;;;;;;;;;;;20.54;60.62;100816.81;2210302;39;113957;-53
2021/07/29 07:48:46;;;;;;;;;;;;;;;20.51;60.76;100813.81;2212088;39;113714;-53